createdAt,value
2022-11-02T00:00:37.989Z,42.53
2022-11-02T00:03:09.636Z,42.51
2022-11-02T00:05:41.136Z,42.48
2022-11-02T00:08:11.800Z,43.05
2022-11-02T00:10:41.914Z,42.53
2022-11-02T00:13:13.698Z,42.96
2022-11-02T00:15:44.383Z,42.73
2022-11-02T00:18:16.180Z,42.81
2022-11-02T00:20:47.096Z,42.85
2022-11-02T00:23:18.379Z,42.87
2022-11-02T00:25:52.693Z,42.91
2022-11-02T00:28:23.340Z,42.92
2022-11-02T00:30:54.022Z,42.76
2022-11-02T00:33:24.714Z,42.68
2022-11-02T00:35:56.400Z,42.49
2022-11-02T00:38:28.210Z,42.99
2022-11-02T00:41:03.664Z,42.79
2022-11-02T00:43:37.184Z,42.71
2022-11-02T00:46:09.458Z,42.61
2022-11-02T00:48:40.920Z,42.97
2022-11-02T00:51:22.448Z,42.07
2022-11-02T00:53:55.791Z,42.40
2022-11-02T00:56:25.940Z,41.92
2022-11-02T00:59:05.062Z,43.13
2022-11-02T01:01:35.976Z,42.11
2022-11-02T01:04:07.737Z,42.45
2022-11-02T01:06:41.515Z,42.87
2022-11-02T01:09:13.829Z,42.71
2022-11-02T01:11:46.330Z,42.71
2022-11-02T01:14:17.584Z,43.10
2022-11-02T01:16:49.580Z,42.66
2022-11-02T01:19:23.017Z,43.48
2022-11-02T01:21:53.631Z,42.38
2022-11-02T01:24:24.783Z,44.26
2022-11-02T01:26:57.093Z,43.70
2022-11-02T01:29:29.183Z,44.20
2022-11-02T01:31:59.553Z,42.59
2022-11-02T01:34:31.109Z,42.49
2022-11-02T01:37:01.549Z,42.27
2022-11-02T01:39:32.952Z,42.34
2022-11-02T01:42:03.926Z,42.85
2022-11-02T01:44:38.034Z,42.82
2022-11-02T01:47:21.329Z,42.00
2022-11-02T01:50:06.604Z,42.33
2022-11-02T01:52:41.819Z,43.07
2022-11-02T01:55:21.624Z,43.79
2022-11-02T01:58:02.645Z,42.84
2022-11-02T02:00:33.206Z,42.79
2022-11-02T02:03:22.460Z,42.63
2022-11-02T02:06:03.861Z,43.17
2022-11-02T02:08:35.791Z,43.30
2022-11-02T02:11:27.346Z,42.98
2022-11-02T02:14:04.485Z,43.67
2022-11-02T02:19:31.828Z,43.01
2022-11-02T02:22:24.234Z,42.59
2022-11-02T02:25:16.067Z,42.70
2022-11-02T02:28:14.143Z,42.85
2022-11-02T02:31:08.097Z,43.08
2022-11-02T02:33:58.601Z,42.82
2022-11-02T02:36:54.032Z,43.53
2022-11-02T02:39:57.687Z,42.92
2022-11-02T02:42:46.966Z,44.33
2022-11-02T02:45:47.509Z,42.78
2022-11-02T02:48:22.354Z,43.74
2022-11-02T02:51:04.207Z,42.94
2022-11-02T02:53:46.077Z,43.17
2022-11-02T02:56:22.942Z,42.78
2022-11-02T02:59:02.022Z,42.86
2022-11-02T03:01:33.060Z,42.57
2022-11-02T03:04:05.002Z,42.94
2022-11-02T03:06:37.112Z,43.15
2022-11-02T03:09:31.558Z,43.17
2022-11-02T03:12:27.774Z,43.96
2022-11-02T03:15:15.675Z,43.90
2022-11-02T03:17:57.937Z,42.59
2022-11-02T03:20:56.840Z,43.35
2022-11-02T03:23:37.173Z,43.19
2022-11-02T03:26:15.404Z,42.89
2022-11-02T03:28:53.721Z,43.21
2022-11-02T03:31:34.685Z,42.63
2022-11-02T03:34:16.858Z,42.51
2022-11-02T03:37:02.131Z,42.80
2022-11-02T03:39:57.747Z,42.03
2022-11-02T03:42:33.361Z,42.45
2022-11-02T03:45:16.556Z,42.07
2022-11-02T03:47:58.100Z,42.56
2022-11-02T03:50:29.275Z,42.17
2022-11-02T03:53:07.988Z,41.90
2022-11-02T03:55:48.031Z,41.77
2022-11-02T03:58:20.438Z,42.19
2022-11-02T04:00:57.393Z,41.98
2022-11-02T04:03:27.715Z,41.91
2022-11-02T04:05:58.870Z,41.95
2022-11-02T04:08:46.618Z,42.08
2022-11-02T04:11:36.922Z,42.06
2022-11-02T04:14:30.377Z,41.67
2022-11-02T04:17:20.869Z,41.54
2022-11-02T04:19:54.834Z,41.34
2022-11-02T04:22:43.700Z,41.60
2022-11-02T04:25:22.291Z,42.03
2022-11-02T04:28:10.517Z,41.54
2022-11-02T04:30:46.360Z,41.34
2022-11-02T04:33:35.954Z,41.92
2022-11-02T04:36:24.466Z,41.54
2022-11-02T04:38:58.630Z,41.57
2022-11-02T04:41:44.746Z,41.30
2022-11-02T04:44:34.757Z,41.40
2022-11-02T04:47:22.957Z,41.07
2022-11-02T04:49:55.318Z,41.10
2022-11-02T04:52:25.632Z,41.27
2022-11-02T04:54:57.501Z,41.27
2022-11-02T04:57:28.421Z,41.19
2022-11-02T05:00:02.611Z,40.66
2022-11-02T05:02:35.349Z,40.66
2022-11-02T05:05:08.517Z,40.34
2022-11-02T05:07:38.702Z,40.14
2022-11-02T05:10:09.278Z,40.53
2022-11-02T05:12:40.791Z,40.58
2022-11-02T05:15:11.572Z,39.54
2022-11-02T05:17:42.163Z,40.06
2022-11-02T05:21:14.086Z,40.34
2022-11-02T05:24:08.876Z,39.80
2022-11-02T05:27:13.195Z,39.70
2022-11-02T05:34:09.829Z,40.03
2022-11-02T05:45:25.409Z,39.67
2022-11-02T05:47:55.575Z,39.63
2022-11-02T05:50:29.343Z,39.13
2022-11-02T05:53:02.604Z,39.59
2022-11-02T05:55:36.659Z,39.29
2022-11-02T05:58:07.850Z,39.07
2022-11-02T06:00:39.396Z,38.97
2022-11-02T06:03:10.753Z,38.99
2022-11-02T06:05:42.343Z,38.16
2022-11-02T06:08:13.910Z,38.18
2022-11-02T06:10:44.630Z,38.11
2022-11-02T06:13:16.488Z,38.21
2022-11-02T06:15:47.210Z,38.08
2022-11-02T06:18:17.702Z,38.27
2022-11-02T06:20:47.958Z,37.85
2022-11-02T06:23:20.921Z,38.32
2022-11-02T06:26:03.784Z,38.75
2022-11-02T06:28:34.968Z,38.50
2022-11-02T06:31:05.816Z,38.22
2022-11-02T06:33:36.037Z,37.64
2022-11-02T06:36:08.914Z,37.23
2022-11-02T06:38:40.039Z,37.59
2022-11-02T06:41:11.249Z,37.83
2022-11-02T06:43:42.419Z,37.70
2022-11-02T06:46:13.959Z,37.80
2022-11-02T06:48:45.536Z,37.67
2022-11-02T06:51:16.363Z,37.87
2022-11-02T06:53:47.399Z,36.62
2022-11-02T06:56:19.307Z,36.83
2022-11-02T06:58:49.899Z,36.92
2022-11-02T07:01:22.084Z,37.00
2022-11-02T07:03:53.958Z,37.02
2022-11-02T07:06:25.299Z,37.75
2022-11-02T07:08:57.775Z,37.02
2022-11-02T07:11:29.056Z,37.45
2022-11-02T07:14:01.092Z,36.18
2022-11-02T07:16:32.650Z,36.75
2022-11-02T07:19:03.161Z,37.35
2022-11-02T07:21:33.699Z,37.79
2022-11-02T07:24:03.912Z,37.79
2022-11-02T07:26:34.419Z,37.45
2022-11-02T07:29:05.066Z,38.24
2022-11-02T07:31:37.135Z,37.30
2022-11-02T07:34:10.638Z,37.50
2022-11-02T07:36:43.577Z,37.69
2022-11-02T07:39:14.101Z,36.93
2022-11-02T07:41:49.354Z,37.66
2022-11-02T07:44:22.159Z,36.71
2022-11-02T07:46:58.818Z,37.58
2022-11-02T07:49:30.143Z,36.97
2022-11-02T07:52:03.678Z,37.20
2022-11-02T07:54:39.572Z,37.27
2022-11-02T07:57:13.964Z,37.16
2022-11-02T07:59:44.595Z,37.23
2022-11-02T08:02:17.635Z,36.44
2022-11-02T08:04:48.293Z,37.58
2022-11-02T08:07:18.555Z,37.70
2022-11-02T08:09:48.685Z,37.74
2022-11-02T08:12:21.751Z,37.47
2022-11-02T08:14:52.267Z,37.89
2022-11-02T08:17:23.254Z,37.53
2022-11-02T08:19:53.630Z,37.68
2022-11-02T08:22:23.873Z,38.02
2022-11-02T08:24:54.677Z,37.80
2022-11-02T08:27:25.639Z,38.39
2022-11-02T08:29:56.068Z,38.11
2022-11-02T08:32:26.472Z,38.17
2022-11-02T08:34:56.963Z,37.74
2022-11-02T08:37:28.047Z,38.06
2022-11-02T08:40:00.327Z,38.45
2022-11-02T08:42:30.512Z,38.21
2022-11-02T08:45:00.762Z,37.92
2022-11-02T08:47:30.879Z,38.48
2022-11-02T08:50:00.898Z,38.03
2022-11-02T08:52:40.367Z,38.82
2022-11-02T08:55:12.082Z,38.22
2022-11-02T08:57:54.771Z,38.67
2022-11-02T09:00:36.846Z,38.74
2022-11-02T09:03:09.007Z,38.79
2022-11-02T09:05:42.312Z,38.37
2022-11-02T09:08:17.306Z,38.50
2022-11-02T09:10:50.985Z,39.30
2022-11-02T09:13:26.357Z,38.77
2022-11-02T09:15:59.392Z,38.20
2022-11-02T09:18:30.340Z,38.23
2022-11-02T09:21:06.470Z,38.35
2022-11-02T09:23:37.312Z,37.76
2022-11-02T09:26:08.272Z,37.94
2022-11-02T09:28:39.540Z,37.75
2022-11-02T09:31:11.574Z,37.30
2022-11-02T09:33:42.753Z,38.61
2022-11-02T09:36:13.408Z,38.39
2022-11-02T09:38:45.728Z,38.62
2022-11-02T09:41:41.591Z,38.89
2022-11-02T09:44:41.069Z,38.24
2022-11-02T09:48:28.328Z,38.26
2022-11-02T09:50:07.010Z,38.71
2022-11-02T09:52:39.103Z,39.12
2022-11-02T09:55:21.238Z,37.92
2022-11-02T09:57:52.074Z,38.48
2022-11-02T10:00:23.177Z,38.05
2022-11-02T10:03:17.570Z,37.93
2022-11-02T10:05:56.495Z,37.51
2022-11-02T10:08:52.944Z,37.96
2022-11-02T10:12:07.030Z,37.78
2022-11-02T10:14:39.959Z,37.80
2022-11-02T10:17:29.977Z,38.34
2022-11-02T10:20:06.372Z,37.80
2022-11-02T10:22:39.283Z,38.32
2022-11-02T10:25:13.983Z,37.93
2022-11-02T10:27:49.916Z,38.34
2022-11-02T10:30:22.227Z,38.52
2022-11-02T10:32:58.009Z,38.00
2022-11-02T10:36:04.926Z,38.15
2022-11-02T10:39:16.700Z,38.79
2022-11-02T10:42:09.758Z,38.32
2022-11-02T10:44:45.841Z,38.55
2022-11-02T10:47:19.515Z,38.70
2022-11-02T10:49:52.779Z,39.25
2022-11-02T10:52:23.816Z,39.04
2022-11-02T10:54:54.837Z,39.13
2022-11-02T10:57:27.792Z,39.46
2022-11-02T11:00:33.893Z,39.80
2022-11-02T11:03:14.687Z,40.23
2022-11-02T11:06:05.197Z,39.50
2022-11-02T11:08:45.416Z,39.77
2022-11-02T11:11:19.160Z,41.17
2022-11-02T11:19:58.597Z,40.53
2022-11-02T11:22:40.035Z,40.55
2022-11-02T11:25:28.037Z,40.53
2022-11-02T11:28:00.874Z,40.49
2022-11-02T11:30:59.116Z,40.75
2022-11-02T11:33:33.650Z,41.26
2022-11-02T11:36:04.351Z,41.27
2022-11-02T11:38:35.826Z,41.36
2022-11-02T11:41:07.392Z,41.20
2022-11-02T11:43:40.766Z,40.92
2022-11-02T11:46:16.367Z,41.04
2022-11-02T11:49:02.282Z,40.64
2022-11-02T11:51:46.921Z,41.35
2022-11-02T11:54:30.378Z,40.97
2022-11-02T11:57:21.898Z,41.35
2022-11-02T11:59:59.683Z,41.48
2022-11-02T12:02:44.179Z,40.98
2022-11-02T12:05:18.263Z,40.85
2022-11-02T12:08:06.993Z,41.15
2022-11-02T12:11:20.723Z,40.42
2022-11-02T12:14:24.257Z,40.71
2022-11-02T12:17:12.392Z,40.44
2022-11-02T12:20:18.611Z,40.17
2022-11-02T12:23:26.700Z,40.10
2022-11-02T12:26:03.077Z,40.82
2022-11-02T12:28:58.228Z,40.40
2022-11-02T12:31:36.955Z,40.30
2022-11-02T12:34:38.333Z,40.92
2022-11-02T12:37:40.241Z,41.09
2022-11-02T12:40:17.118Z,41.60
2022-11-02T12:43:14.493Z,40.80
2022-11-02T12:45:59.849Z,40.90
2022-11-02T12:49:00.068Z,40.17
2022-11-02T12:51:55.362Z,40.16
2022-11-02T12:54:41.588Z,40.08
2022-11-02T12:57:20.714Z,40.25
2022-11-02T12:59:57.579Z,40.36
2022-11-02T13:03:17.865Z,40.08
2022-11-02T13:06:00.326Z,40.16
2022-11-02T13:08:55.411Z,40.06
2022-11-02T13:11:35.250Z,39.96
2022-11-02T13:14:15.226Z,39.97
2022-11-02T13:17:06.374Z,40.53
2022-11-02T13:19:41.062Z,40.16
2022-11-02T13:22:16.018Z,39.66
2022-11-02T13:24:56.112Z,40.04
2022-11-02T13:27:39.269Z,39.91
2022-11-02T13:30:20.198Z,40.05
2022-11-02T13:33:06.671Z,39.57
2022-11-02T13:35:42.578Z,39.83
2022-11-02T13:38:35.012Z,39.52
2022-11-02T13:41:11.418Z,39.33
2022-11-02T13:43:50.520Z,39.44
2022-11-02T13:46:52.114Z,39.37
2022-11-02T13:49:39.183Z,39.17
2022-11-02T13:52:18.657Z,38.87
2022-11-02T13:54:55.154Z,38.89
2022-11-02T13:57:47.525Z,38.94
2022-11-02T14:00:29.231Z,38.61
2022-11-02T14:03:06.588Z,38.78
2022-11-02T14:05:47.746Z,38.61
2022-11-02T14:08:27.732Z,38.68
2022-11-02T14:11:31.150Z,38.57
2022-11-02T14:14:04.673Z,38.85
2022-11-02T14:19:54.048Z,38.30
2022-11-02T14:22:25.992Z,38.42
2022-11-02T14:25:06.769Z,38.76
2022-11-02T14:27:40.337Z,38.48
2022-11-02T14:30:45.263Z,38.46
2022-11-02T14:33:46.886Z,38.67
2022-11-02T14:36:21.400Z,38.25
2022-11-02T14:38:59.227Z,38.52
2022-11-02T14:41:53.594Z,38.61
2022-11-02T14:44:52.849Z,38.59
2022-11-02T14:47:32.285Z,38.74
2022-11-02T14:50:21.959Z,39.17
2022-11-02T14:53:11.751Z,38.67
2022-11-02T14:55:43.839Z,38.59
2022-11-02T14:58:23.370Z,38.84
2022-11-02T15:00:53.871Z,38.43
2022-11-02T15:03:30.894Z,38.65
2022-11-02T15:06:17.064Z,38.17
2022-11-02T15:09:06.124Z,38.40
2022-11-02T15:11:59.137Z,38.32
2022-11-02T15:14:41.688Z,38.23
2022-11-02T15:17:18.216Z,38.67
2022-11-02T15:19:55.941Z,38.75
2022-11-02T15:22:35.485Z,39.00
2022-11-02T15:25:16.676Z,38.96
2022-11-02T15:27:48.531Z,39.01
2022-11-02T15:30:28.023Z,39.35
2022-11-02T15:33:06.569Z,39.59
2022-11-02T15:35:40.165Z,39.61
2022-11-02T15:38:18.029Z,39.72
2022-11-02T15:41:02.851Z,40.17
2022-11-02T15:43:48.539Z,40.40
2022-11-02T15:46:35.435Z,39.77
2022-11-02T15:49:19.500Z,39.79
2022-11-02T15:52:07.169Z,40.38
2022-11-02T15:54:54.155Z,40.21
2022-11-02T15:57:39.028Z,40.16
2022-11-02T16:00:11.834Z,38.96
2022-11-02T16:02:56.018Z,39.33
2022-11-02T16:05:35.982Z,39.66
2022-11-02T16:08:11.230Z,40.25
2022-11-02T16:10:43.171Z,39.53
2022-11-02T16:13:20.708Z,39.58
2022-11-02T16:15:53.171Z,39.66
2022-11-02T16:18:29.524Z,39.57
2022-11-02T16:21:04.639Z,39.18
2022-11-02T16:23:44.299Z,39.29
2022-11-02T16:26:25.474Z,38.88
2022-11-02T16:29:02.787Z,38.33
2022-11-02T16:31:33.728Z,38.43
2022-11-02T16:34:15.859Z,38.50
2022-11-02T16:36:46.761Z,38.72
2022-11-02T16:39:36.604Z,37.81
2022-11-02T16:42:31.098Z,37.91
2022-11-02T16:45:05.623Z,38.00
2022-11-02T16:47:47.329Z,38.53
2022-11-02T16:50:26.218Z,38.13
2022-11-02T16:53:05.423Z,38.48
2022-11-02T16:55:49.435Z,38.19
2022-11-02T16:58:26.478Z,38.43
2022-11-02T17:01:03.120Z,38.38
2022-11-02T17:03:35.681Z,38.45
2022-11-02T17:06:08.788Z,38.78
2022-11-02T17:08:41.861Z,38.44
2022-11-02T17:11:19.209Z,38.26
2022-11-02T17:14:03.997Z,38.36
2022-11-02T17:16:36.808Z,38.98
2022-11-02T17:19:10.857Z,38.50
2022-11-02T17:21:47.301Z,39.08
2022-11-02T17:24:36.493Z,39.18
2022-11-02T17:27:26.908Z,39.13
2022-11-02T17:29:57.144Z,39.66
2022-11-02T17:32:28.971Z,39.37
2022-11-02T17:35:00.853Z,39.05
2022-11-02T17:37:34.918Z,38.96
2022-11-02T17:40:05.606Z,39.10
2022-11-02T17:42:55.847Z,38.92
2022-11-02T17:45:35.480Z,39.42
2022-11-02T17:48:08.562Z,39.38
2022-11-02T17:50:41.385Z,39.19
2022-11-02T17:53:15.393Z,38.88
2022-11-02T17:55:46.034Z,38.85
2022-11-02T17:58:16.929Z,38.73
2022-11-02T18:00:48.699Z,38.98
2022-11-02T18:03:25.584Z,39.05
2022-11-02T18:06:00.334Z,39.51
2022-11-02T18:08:30.970Z,39.37
2022-11-02T18:11:02.368Z,39.86
2022-11-02T18:13:32.738Z,40.04
2022-11-02T18:16:02.788Z,39.66
2022-11-02T18:18:32.830Z,40.23
2022-11-02T18:21:02.776Z,40.57
2022-11-02T18:23:34.339Z,40.49
2022-11-02T18:26:04.588Z,40.66
2022-11-02T18:28:34.185Z,40.36
2022-11-02T18:31:05.329Z,40.62
2022-11-02T18:33:35.833Z,40.22
2022-11-02T18:36:11.130Z,40.24
2022-11-02T18:38:41.184Z,40.41
2022-11-02T18:41:32.024Z,40.82
2022-11-02T18:44:13.608Z,41.35
2022-11-02T18:46:45.347Z,41.09
2022-11-02T18:49:15.828Z,40.89
2022-11-02T18:51:46.955Z,40.95
2022-11-02T18:54:16.993Z,40.92
2022-11-02T18:56:47.532Z,41.33
2022-11-02T18:59:17.672Z,41.83
2022-11-02T19:01:49.090Z,42.31
2022-11-02T19:04:19.357Z,43.57
2022-11-02T19:07:07.572Z,42.47
2022-11-02T19:09:39.396Z,45.32
2022-11-02T19:12:11.005Z,44.49
2022-11-02T19:14:44.809Z,44.56
2022-11-02T19:17:14.687Z,44.88
2022-11-02T19:19:46.790Z,44.60
2022-11-02T19:22:27.094Z,44.45
2022-11-02T19:24:57.253Z,45.57
2022-11-02T19:27:27.664Z,45.57
2022-11-02T19:29:57.648Z,45.98
2022-11-02T19:32:27.820Z,45.65
2022-11-02T19:34:57.925Z,45.84
2022-11-02T19:37:33.445Z,46.21
2022-11-02T19:40:04.965Z,46.29
2022-11-02T19:42:34.293Z,47.15
2022-11-02T19:45:04.344Z,48.53
2022-11-02T19:47:34.292Z,47.02
2022-11-02T19:50:04.756Z,46.64
2022-11-02T19:52:37.511Z,47.20
2022-11-02T19:55:08.407Z,47.26
2022-11-02T19:57:39.182Z,47.25
2022-11-02T20:00:10.391Z,47.38
2022-11-02T20:02:42.602Z,47.88
2022-11-02T20:05:14.029Z,47.80
2022-11-02T20:07:44.386Z,50.68
2022-11-02T20:10:14.924Z,51.12
2022-11-02T20:12:45.376Z,49.99
2022-11-02T20:15:15.430Z,48.45
2022-11-02T20:18:05.645Z,48.74
2022-11-02T20:20:36.171Z,48.75
2022-11-02T20:23:07.653Z,48.74
2022-11-02T20:25:40.792Z,47.92
2022-11-02T20:28:10.979Z,48.16
2022-11-02T20:30:45.048Z,47.17
2022-11-02T20:33:15.425Z,48.14
2022-11-02T20:35:46.307Z,47.57
2022-11-02T20:38:15.986Z,47.97
2022-11-02T20:40:45.963Z,47.72
2022-11-02T20:43:17.186Z,47.94
2022-11-02T20:45:47.604Z,48.24
2022-11-02T20:48:17.602Z,48.26
2022-11-02T20:50:48.127Z,47.18
2022-11-02T20:53:18.740Z,47.14
2022-11-02T20:55:48.966Z,47.84
2022-11-02T20:58:21.237Z,47.73
2022-11-02T21:00:51.944Z,48.02
2022-11-02T21:03:24.043Z,48.03
2022-11-02T21:05:54.300Z,47.78
2022-11-02T21:08:24.928Z,47.47
2022-11-02T21:11:00.000Z,47.08
2022-11-02T21:13:49.921Z,47.71
2022-11-02T21:16:21.094Z,48.08
2022-11-02T21:18:53.479Z,49.01
2022-11-02T21:21:26.431Z,47.35
2022-11-02T21:23:59.214Z,47.27
2022-11-02T21:26:30.883Z,47.60
2022-11-02T21:29:04.209Z,47.54
2022-11-02T21:31:34.941Z,47.61
2022-11-02T21:34:05.190Z,48.59
2022-11-02T21:36:36.133Z,48.31
2022-11-02T21:39:07.518Z,48.02
2022-11-02T21:41:39.875Z,47.97
2022-11-02T21:44:11.546Z,48.56
2022-11-02T21:46:42.501Z,47.68
2022-11-02T21:49:14.233Z,48.19
2022-11-02T21:51:46.025Z,47.22
2022-11-02T21:54:16.194Z,49.09
2022-11-02T21:56:47.643Z,47.80
2022-11-02T21:59:17.310Z,48.09
2022-11-02T22:01:51.011Z,48.06
2022-11-02T22:04:33.417Z,48.86
2022-11-02T22:07:05.440Z,48.97
2022-11-02T22:09:35.852Z,49.13
2022-11-02T22:12:23.945Z,48.73
2022-11-02T22:14:55.411Z,48.44
2022-11-02T22:17:48.670Z,49.52
2022-11-02T22:20:16.435Z,50.12
2022-11-02T22:22:47.962Z,47.40
2022-11-02T22:25:19.502Z,48.54
2022-11-02T22:27:50.580Z,49.21
2022-11-02T22:30:21.304Z,50.28
2022-11-02T22:32:52.438Z,49.19
2022-11-02T22:35:23.905Z,49.25
2022-11-02T22:38:12.114Z,47.44
2022-11-02T22:40:43.801Z,48.42
2022-11-02T22:43:15.326Z,48.96
2022-11-02T22:45:46.995Z,48.62
2022-11-02T22:50:53.943Z,49.72
2022-11-02T22:53:32.733Z,49.17
2022-11-02T22:56:13.879Z,48.97
2022-11-02T22:58:46.959Z,49.17
2022-11-02T23:01:24.734Z,49.00
2022-11-02T23:03:56.388Z,49.46
2022-11-02T23:06:28.334Z,49.37
2022-11-02T23:09:00.549Z,49.28
2022-11-02T23:11:35.833Z,49.21
2022-11-02T23:14:09.184Z,49.83
2022-11-02T23:16:46.238Z,49.02
2022-11-02T23:19:27.693Z,50.56
2022-11-02T23:22:27.114Z,49.55
2022-11-02T23:25:19.315Z,51.23
2022-11-02T23:28:18.745Z,49.90
2022-11-02T23:31:07.976Z,50.09
2022-11-02T23:33:38.618Z,48.88
2022-11-02T23:36:17.861Z,48.97
2022-11-02T23:39:07.849Z,48.77
2022-11-02T23:41:39.940Z,48.78
2022-11-02T23:44:13.945Z,49.19
2022-11-02T23:46:46.583Z,51.26
2022-11-02T23:49:20.838Z,48.93
2022-11-02T23:52:08.750Z,50.46
2022-11-02T23:54:58.094Z,48.01
2022-11-02T23:57:28.133Z,48.67
2022-11-02T23:59:59.091Z,50.10
